Nearby METAR Reports

KLNK - Lincoln, Nebraska, USA
Distance from station: WNW 8mi, 13km
Updated: Tue, 25-Jan-2022 1:54pm CST
Partly Cloudy
Partly Cloudy
 Wind from N
Wind: N 10 mph , 17 km/h
Temperature: 21°F , -6°C
Wind Chill: 10°F , -12°C
Dew Point: 1°F , -17°C
Humidity: 42%
Barometer: 30.43 inHg , 1030.5 hPa
Clouds: Partly Cloudy
Visibility: 10 miles , 16 km
Cloud details: Partly Cloudy 11000 ft
2022/01/25 19:54 KLNK 251954Z 36009KT 10SM SCT110 M06/M17 A3043 RMK AO2 SLP327 T10611167
KAHQ - Wahoo, Nebraska, USA
Distance from station: N 31mi, 49km
Updated: Tue, 25-Jan-2022 2:15pm CST
Partly Cloudy
Partly Cloudy
 Wind from N
Wind: N 12 mph , 19 km/h, Gust: 16 mph , 26 km/h
Temperature: 21°F , -6°C
Wind Chill: 9°F , -13°C
Dew Point: 1°F , -17°C
Humidity: 42%
Barometer: 30.41 inHg , 1029.8 hPa
Clouds: Partly Cloudy
Visibility: 10 miles , 16 km
Cloud details: Partly Cloudy 7500 ft
2022/01/25 20:15 KAHQ 252015Z AUTO 35010G14KT 10SM SCT075 M06/M17 A3041 RMK AO2 T10591168
 
KBIE - Beatrice Municip, Nebraska, USA
Distance from station: S 36mi, 57km
Updated: Tue, 25-Jan-2022 2:15pm CST
Overcast
Overcast
 Wind from N
Wind: N 9 mph , 15 km/h
Temperature: 23°F , -5°C
Wind Chill: 13°F , -11°C
Dew Point: 3°F , -16°C
Humidity: 42%
Barometer: 30.41 inHg , 1029.8 hPa
Clouds: Overcast
Visibility: 10 miles , 16 km
Cloud details: Overcast 6500 ft
2022/01/25 20:15 KBIE 252015Z AUTO 36008KT 10SM OVC065 M05/M16 A3041 RMK AO2 T10521164
KMLE - Omaha/Millard, Nebraska, USA
Distance from station: NE 39mi, 63km
Updated: Tue, 25-Jan-2022 2:15pm CST
Clear
Clear
 Wind from NW
Wind: NW 8 mph , 13 km/h
Temperature: 21°F , -6°C
Wind Chill: 11°F , -12°C
Dew Point: -0°F , -18°C
Humidity: 38%
Barometer: 30.44 inHg , 1030.8 hPa
Clouds: Clear
Visibility: 10 miles , 16 km
2022/01/25 20:15 KMLE 252015Z AUTO 31007KT 10SM CLR M06/M18 A3044 RMK AO2 T10631182
 
KPMV - Plattsmouth Muni, Nebraska, USA
Distance from station: ENE 39mi, 63km
Updated: Tue, 25-Jan-2022 2:15pm CST
Clear
Clear
 Wind from NNW
Wind: NNW 8 mph , 13 km/h, Gust: 18 mph , 30 km/h
Temperature: 19°F , -7°C
Wind Chill: 9°F , -13°C
Dew Point: 1°F , -17°C
Humidity: 45%
Barometer: 30.41 inHg , 1029.8 hPa
Clouds: Clear
Visibility: 10 miles , 16 km
2022/01/25 20:15 KPMV 252015Z AUTO 34007G16KT 10SM CLR M07/M17 A3041 RMK AO2 T10681175
KAFK - Nebraska City, Nebraska, USA
Distance from station: ESE 43mi, 69km
Updated: Tue, 25-Jan-2022 2:15pm CST

 
2022/01/25 20:15 KAFK 252015Z AUTO RMK AO2 PWINO PNO TSNO
 
KOFF - Offutt Afb/Belle, Nebraska, USA
Distance from station: ENE 44mi, 70km
Updated: Tue, 25-Jan-2022 1:56pm CST
Clear
Clear
 Wind from NW
Wind: NW 7 mph , 11 km/h
Temperature: 19°F , -7°C
Wind Chill: 10°F , -12°C
Dew Point: -4°F , -20°C
Humidity: 35%
Barometer: 30.45 inHg , 1031.2 hPa
Clouds: Clear
Visibility: 10 miles , 16 km
2022/01/25 19:56 KOFF 251956Z 32006KT 10SM CLR M07/M20 A3045 RMK AO2A SLP339 $
KFET - Fremont Muni Arp, Nebraska, USA
Distance from station: N 46mi, 74km
Updated: Tue, 25-Jan-2022 2:15pm CST
Mostly Cloudy
Mostly Cloudy
 Wind from NNW
Wind: NNW 12 mph , 19 km/h
Temperature: 21°F , -6°C
Wind Chill: 9°F , -13°C
Dew Point: 1°F , -17°C
Humidity: 42%
Barometer: 30.42 inHg , 1030.1 hPa
Clouds: Mostly Cloudy
Visibility: 10 miles , 16 km
Cloud details: Mostly Cloudy 8000 ft
2022/01/25 20:15 KFET 252015Z AUTO 34010KT 10SM BKN080 M06/M17 A3042 RMK AO2 T10601174
 
KBTA - Blair Muni, Nebraska, USA
Distance from station: NNE 51mi, 82km
Updated: Tue, 25-Jan-2022 2:15pm CST
Clear
Clear
 Wind from N
Wind: N 9 mph , 15 km/h
Temperature: 18°F , -8°C
Wind Chill: 7°F , -14°C
Dew Point: -0°F , -18°C
Humidity: 45%
Barometer: 30.40 inHg , 1029.5 hPa
Clouds: Clear
Visibility: 10 miles , 16 km
2022/01/25 20:15 KBTA 252015Z AUTO 35008KT 10SM CLR M08/M18 A3040 RMK AO2 T10811180
KJYR - York, Nebraska, USA
Distance from station: W 52mi, 84km
Updated: Tue, 25-Jan-2022 2:15pm CST
Light snow, Overcast
Light snow, Overcast
 Wind from N
Wind: N 7 mph , 11 km/h, Gust: 15 mph , 24 km/h
Temperature: 19°F , -7°C
Wind Chill: 10°F , -12°C
Dew Point: 5°F , -15°C
Humidity: 53%
Barometer: 30.39 inHg , 1029.1 hPa
Summary: Light Snow
Clouds: Overcast
Visibility: 10 miles , 16 km
Cloud details: Mostly Cloudy 5000 ft
Mostly Cloudy 5500 ft
Overcast 7000 ft
2022/01/25 20:15 KJYR 252015Z AUTO 35006G13KT 10SM -SN BKN050 BKN055 OVC070 M07/M15 A3039 RMK AO2
 
KOMA - Omaha/Eppley, Nebraska, USA
Distance from station: NE 53mi, 85km
Updated: Tue, 25-Jan-2022 1:52pm CST
Partly Cloudy
Partly Cloudy
 Wind from NNW
Wind: NNW 15 mph , 24 km/h
Temperature: 19°F , -7°C
Wind Chill: 5°F , -15°C
Dew Point: 1°F , -17°C
Humidity: 45%
Barometer: 30.43 inHg , 1030.5 hPa
Clouds: Partly Cloudy
Visibility: 10 miles , 16 km
Cloud details: Partly Cloudy 9500 ft
2022/01/25 19:52 KOMA 251952Z 33013KT 10SM SCT095 M07/M17 A3043 RMK AO2 SLP325 T10721172
KOLU - Columbus Muni, Nebraska, USA
Distance from station: NW 58mi, 93km
Updated: Tue, 25-Jan-2022 1:56pm CST
Overcast
Overcast
 Wind from N
Wind: N 12 mph , 19 km/h
Temperature: 19°F , -7°C
Wind Chill: 6°F , -14°C
Dew Point: 5°F , -15°C
Humidity: 53%
Barometer: 30.42 inHg , 1030.1 hPa
Clouds: Overcast
Visibility: 10 miles , 16 km
Cloud details: Partly Cloudy 5500 ft
Overcast 7500 ft
2022/01/25 19:56 KOLU 251956Z AUTO 35010KT 10SM SCT055 OVC075 M07/M15 A3042 RMK AO2 SLP331 T10671150 FZRANO